sensor_id;sensor_type;location;lat;lon;timestamp;P1;durP1;ratioP1;P2;durP2;ratioP2
78346;SDS011;67803;41.330;69.282;2024-02-21T00:01:16;160.18;;;79.63;;
78346;SDS011;67803;41.330;69.282;2024-02-21T00:03:47;167.82;;;81.30;;
78346;SDS011;67803;41.330;69.282;2024-02-21T00:06:18;166.88;;;82.85;;
78346;SDS011;67803;41.330;69.282;2024-02-21T00:08:49;167.30;;;88.85;;
78346;SDS011;67803;41.330;69.282;2024-02-21T00:11:20;176.93;;;86.38;;
78346;SDS011;67803;41.330;69.282;2024-02-21T00:13:51;183.25;;;87.85;;
78346;SDS011;67803;41.330;69.282;2024-02-21T00:16:22;187.32;;;90.03;;
78346;SDS011;67803;41.330;69.282;2024-02-21T00:18:53;188.45;;;89.55;;
78346;SDS011;67803;41.330;69.282;2024-02-21T00:21:24;181.73;;;88.85;;
78346;SDS011;67803;41.330;69.282;2024-02-21T00:23:55;182.75;;;86.60;;
78346;SDS011;67803;41.330;69.282;2024-02-21T00:26:27;181.82;;;91.93;;
78346;SDS011;67803;41.330;69.282;2024-02-21T00:29:00;174.50;;;85.45;;
78346;SDS011;67803;41.330;69.282;2024-02-21T00:31:31;179.13;;;92.07;;
78346;SDS011;67803;41.330;69.282;2024-02-21T00:34:02;163.88;;;83.47;;
78346;SDS011;67803;41.330;69.282;2024-02-21T00:36:33;169.52;;;82.40;;
78346;SDS011;67803;41.330;69.282;2024-02-21T00:39:04;174.35;;;87.97;;
78346;SDS011;67803;41.330;69.282;2024-02-21T00:41:35;166.65;;;83.18;;
78346;SDS011;67803;41.330;69.282;2024-02-21T00:44:07;166.55;;;86.22;;
78346;SDS011;67803;41.330;69.282;2024-02-21T00:46:38;175.63;;;88.68;;
78346;SDS011;67803;41.330;69.282;2024-02-21T00:49:09;176.30;;;88.22;;
78346;SDS011;67803;41.330;69.282;2024-02-21T00:51:40;182.57;;;87.85;;
78346;SDS011;67803;41.330;69.282;2024-02-21T00:54:11;178.52;;;89.35;;
78346;SDS011;67803;41.330;69.282;2024-02-21T00:56:42;183.15;;;87.13;;
78346;SDS011;67803;41.330;69.282;2024-02-21T00:59:13;189.43;;;95.05;;
78346;SDS011;67803;41.330;69.282;2024-02-21T01:01:44;198.55;;;96.80;;
78346;SDS011;67803;41.330;69.282;2024-02-21T01:04:15;201.82;;;97.30;;
78346;SDS011;67803;41.330;69.282;2024-02-21T01:06:46;194.63;;;95.47;;
78346;SDS011;67803;41.330;69.282;2024-02-21T01:09:17;196.05;;;95.65;;
78346;SDS011;67803;41.330;69.282;2024-02-21T01:11:48;197.50;;;95.78;;
78346;SDS011;67803;41.330;69.282;2024-02-21T01:14:19;217.50;;;104.68;;
78346;SDS011;67803;41.330;69.282;2024-02-21T01:16:50;204.63;;;103.47;;
78346;SDS011;67803;41.330;69.282;2024-02-21T01:19:21;213.38;;;105.28;;
78346;SDS011;67803;41.330;69.282;2024-02-21T01:21:53;216.48;;;100.15;;
78346;SDS011;67803;41.330;69.282;2024-02-21T01:24:23;217.75;;;106.70;;
78346;SDS011;67803;41.330;69.282;2024-02-21T01:26:54;217.52;;;106.95;;
78346;SDS011;67803;41.330;69.282;2024-02-21T01:29:25;236.68;;;113.68;;
78346;SDS011;67803;41.330;69.282;2024-02-21T01:31:56;231.10;;;114.45;;
78346;SDS011;67803;41.330;69.282;2024-02-21T01:34:27;232.93;;;113.93;;
78346;SDS011;67803;41.330;69.282;2024-02-21T01:36:58;234.85;;;112.03;;
78346;SDS011;67803;41.330;69.282;2024-02-21T01:39:30;232.90;;;111.18;;
78346;SDS011;67803;41.330;69.282;2024-02-21T01:42:01;216.40;;;110.57;;
78346;SDS011;67803;41.330;69.282;2024-02-21T01:44:32;205.07;;;99.45;;
78346;SDS011;67803;41.330;69.282;2024-02-21T01:47:03;206.90;;;102.60;;
78346;SDS011;67803;41.330;69.282;2024-02-21T01:49:34;202.38;;;101.60;;
78346;SDS011;67803;41.330;69.282;2024-02-21T01:52:05;202.93;;;99.28;;
78346;SDS011;67803;41.330;69.282;2024-02-21T01:54:37;206.63;;;100.38;;
78346;SDS011;67803;41.330;69.282;2024-02-21T01:57:09;206.68;;;102.25;;
78346;SDS011;67803;41.330;69.282;2024-02-21T01:59:40;203.93;;;99.43;;
78346;SDS011;67803;41.330;69.282;2024-02-21T02:02:11;203.98;;;100.03;;
78346;SDS011;67803;41.330;69.282;2024-02-21T02:04:42;203.88;;;101.88;;
78346;SDS011;67803;41.330;69.282;2024-02-21T02:07:13;211.77;;;103.13;;
78346;SDS011;67803;41.330;69.282;2024-02-21T02:09:44;213.77;;;102.75;;
78346;SDS011;67803;41.330;69.282;2024-02-21T02:12:15;208.68;;;103.25;;
78346;SDS011;67803;41.330;69.282;2024-02-21T02:14:46;194.75;;;98.40;;
78346;SDS011;67803;41.330;69.282;2024-02-21T02:17:27;196.25;;;99.57;;
78346;SDS011;67803;41.330;69.282;2024-02-21T02:19:58;201.02;;;100.82;;
78346;SDS011;67803;41.330;69.282;2024-02-21T02:22:29;195.23;;;102.78;;
78346;SDS011;67803;41.330;69.282;2024-02-21T02:25:03;205.50;;;109.97;;
78346;SDS011;67803;41.330;69.282;2024-02-21T02:27:41;206.88;;;102.72;;
78346;SDS011;67803;41.330;69.282;2024-02-21T02:30:12;196.95;;;104.38;;
78346;SDS011;67803;41.330;69.282;2024-02-21T02:32:46;204.80;;;111.38;;
78346;SDS011;67803;41.330;69.282;2024-02-21T02:35:17;211.02;;;109.45;;
78346;SDS011;67803;41.330;69.282;2024-02-21T02:37:48;209.07;;;109.10;;
78346;SDS011;67803;41.330;69.282;2024-02-21T02:40:20;221.43;;;112.93;;
78346;SDS011;67803;41.330;69.282;2024-02-21T02:42:51;236.18;;;117.32;;
78346;SDS011;67803;41.330;69.282;2024-02-21T02:45:25;218.82;;;115.43;;
78346;SDS011;67803;41.330;69.282;2024-02-21T02:47:58;225.80;;;118.63;;
78346;SDS011;67803;41.330;69.282;2024-02-21T02:50:30;226.05;;;116.35;;
78346;SDS011;67803;41.330;69.282;2024-02-21T02:53:01;219.45;;;113.22;;
78346;SDS011;67803;41.330;69.282;2024-02-21T02:55:32;217.95;;;113.25;;
78346;SDS011;67803;41.330;69.282;2024-02-21T02:58:03;211.57;;;106.90;;
78346;SDS011;67803;41.330;69.282;2024-02-21T03:00:34;203.85;;;105.72;;
78346;SDS011;67803;41.330;69.282;2024-02-21T03:03:06;199.23;;;101.45;;
78346;SDS011;67803;41.330;69.282;2024-02-21T03:05:39;182.60;;;96.90;;
78346;SDS011;67803;41.330;69.282;2024-02-21T03:08:12;173.52;;;88.57;;
78346;SDS011;67803;41.330;69.282;2024-02-21T03:10:44;148.43;;;79.45;;
78346;SDS011;67803;41.330;69.282;2024-02-21T03:13:15;154.18;;;75.80;;
78346;SDS011;67803;41.330;69.282;2024-02-21T03:15:46;155.55;;;82.47;;
78346;SDS011;67803;41.330;69.282;2024-02-21T03:18:17;134.05;;;68.40;;
78346;SDS011;67803;41.330;69.282;2024-02-21T03:20:48;135.60;;;67.60;;
78346;SDS011;67803;41.330;69.282;2024-02-21T03:23:19;127.43;;;64.28;;
78346;SDS011;67803;41.330;69.282;2024-02-21T03:25:50;127.35;;;60.58;;
78346;SDS011;67803;41.330;69.282;2024-02-21T03:28:21;110.00;;;52.03;;
78346;SDS011;67803;41.330;69.282;2024-02-21T03:30:52;111.53;;;52.05;;
78346;SDS011;67803;41.330;69.282;2024-02-21T03:33:23;111.95;;;55.08;;
78346;SDS011;67803;41.330;69.282;2024-02-21T03:35:54;124.75;;;58.70;;
78346;SDS011;67803;41.330;69.282;2024-02-21T03:38:25;119.07;;;59.60;;
78346;SDS011;67803;41.330;69.282;2024-02-21T03:40:56;121.80;;;58.10;;
78346;SDS011;67803;41.330;69.282;2024-02-21T03:43:27;121.35;;;61.72;;
78346;SDS011;67803;41.330;69.282;2024-02-21T03:45:58;123.15;;;59.58;;
78346;SDS011;67803;41.330;69.282;2024-02-21T03:48:29;115.93;;;59.92;;
78346;SDS011;67803;41.330;69.282;2024-02-21T03:51:00;113.22;;;54.92;;
78346;SDS011;67803;41.330;69.282;2024-02-21T03:53:31;112.95;;;56.53;;
78346;SDS011;67803;41.330;69.282;2024-02-21T03:56:03;111.72;;;52.92;;
78346;SDS011;67803;41.330;69.282;2024-02-21T03:58:34;103.22;;;51.08;;
78346;SDS011;67803;41.330;69.282;2024-02-21T04:01:05;107.82;;;52.95;;
78346;SDS011;67803;41.330;69.282;2024-02-21T04:03:36;111.50;;;51.78;;
78346;SDS011;67803;41.330;69.282;2024-02-21T04:06:07;104.35;;;50.13;;
78346;SDS011;67803;41.330;69.282;2024-02-21T04:08:38;91.28;;;47.83;;
78346;SDS011;67803;41.330;69.282;2024-02-21T04:11:09;95.30;;;48.83;;
78346;SDS011;67803;41.330;69.282;2024-02-21T04:13:40;93.22;;;44.47;;
78346;SDS011;67803;41.330;69.282;2024-02-21T04:16:11;88.60;;;45.13;;
78346;SDS011;67803;41.330;69.282;2024-02-21T04:18:42;91.10;;;44.53;;
78346;SDS011;67803;41.330;69.282;2024-02-21T04:21:16;82.82;;;40.22;;
78346;SDS011;67803;41.330;69.282;2024-02-21T04:23:47;87.00;;;42.08;;
78346;SDS011;67803;41.330;69.282;2024-02-21T04:26:19;84.75;;;40.53;;
78346;SDS011;67803;41.330;69.282;2024-02-21T04:28:50;67.95;;;35.55;;
78346;SDS011;67803;41.330;69.282;2024-02-21T04:31:21;69.40;;;34.22;;
78346;SDS011;67803;41.330;69.282;2024-02-21T04:33:52;73.70;;;37.17;;
78346;SDS011;67803;41.330;69.282;2024-02-21T04:36:23;70.32;;;34.55;;
78346;SDS011;67803;41.330;69.282;2024-02-21T04:38:54;74.20;;;36.47;;
78346;SDS011;67803;41.330;69.282;2024-02-21T04:41:28;74.28;;;35.65;;
78346;SDS011;67803;41.330;69.282;2024-02-21T04:43:59;71.07;;;35.50;;
78346;SDS011;67803;41.330;69.282;2024-02-21T04:46:30;60.30;;;30.30;;
78346;SDS011;67803;41.330;69.282;2024-02-21T04:49:01;46.65;;;22.70;;
78346;SDS011;67803;41.330;69.282;2024-02-21T04:51:32;49.28;;;23.63;;
78346;SDS011;67803;41.330;69.282;2024-02-21T04:54:03;51.88;;;26.02;;
78346;SDS011;67803;41.330;69.282;2024-02-21T04:56:34;48.28;;;25.73;;
78346;SDS011;67803;41.330;69.282;2024-02-21T04:59:05;49.63;;;26.88;;
78346;SDS011;67803;41.330;69.282;2024-02-21T05:01:36;47.33;;;23.70;;
78346;SDS011;67803;41.330;69.282;2024-02-21T05:04:07;45.42;;;22.95;;
78346;SDS011;67803;41.330;69.282;2024-02-21T05:06:41;40.15;;;22.13;;
78346;SDS011;67803;41.330;69.282;2024-02-21T05:09:12;38.00;;;20.05;;
78346;SDS011;67803;41.330;69.282;2024-02-21T05:11:43;38.35;;;19.65;;
78346;SDS011;67803;41.330;69.282;2024-02-21T05:14:15;35.22;;;20.02;;
78346;SDS011;67803;41.330;69.282;2024-02-21T05:16:46;41.47;;;20.67;;
78346;SDS011;67803;41.330;69.282;2024-02-21T05:19:17;40.10;;;19.73;;
78346;SDS011;67803;41.330;69.282;2024-02-21T05:21:48;48.45;;;23.77;;
78346;SDS011;67803;41.330;69.282;2024-02-21T05:24:19;38.90;;;19.42;;
78346;SDS011;67803;41.330;69.282;2024-02-21T05:26:51;40.70;;;19.90;;
78346;SDS011;67803;41.330;69.282;2024-02-21T05:29:22;41.47;;;21.05;;
78346;SDS011;67803;41.330;69.282;2024-02-21T05:34:24;35.95;;;19.50;;
78346;SDS011;67803;41.330;69.282;2024-02-21T05:36:55;35.13;;;18.70;;
78346;SDS011;67803;41.330;69.282;2024-02-21T05:39:27;32.88;;;18.75;;
78346;SDS011;67803;41.330;69.282;2024-02-21T05:41:59;38.78;;;18.92;;
78346;SDS011;67803;41.330;69.282;2024-02-21T05:44:30;34.28;;;16.65;;
78346;SDS011;67803;41.330;69.282;2024-02-21T05:47:01;31.25;;;16.67;;
78346;SDS011;67803;41.330;69.282;2024-02-21T05:49:32;31.40;;;16.75;;
78346;SDS011;67803;41.330;69.282;2024-02-21T05:52:03;27.38;;;15.32;;
78346;SDS011;67803;41.330;69.282;2024-02-21T05:54:39;30.02;;;15.30;;
78346;SDS011;67803;41.330;69.282;2024-02-21T05:57:10;34.30;;;15.43;;
78346;SDS011;67803;41.330;69.282;2024-02-21T05:59:41;25.80;;;14.55;;
78346;SDS011;67803;41.330;69.282;2024-02-21T06:02:14;24.13;;;12.60;;
78346;SDS011;67803;41.330;69.282;2024-02-21T06:04:45;24.63;;;12.98;;
78346;SDS011;67803;41.330;69.282;2024-02-21T06:07:16;24.17;;;11.50;;
78346;SDS011;67803;41.330;69.282;2024-02-21T06:09:47;25.17;;;13.40;;
78346;SDS011;67803;41.330;69.282;2024-02-21T06:12:18;24.08;;;11.35;;
78346;SDS011;67803;41.330;69.282;2024-02-21T06:14:49;22.73;;;12.95;;
78346;SDS011;67803;41.330;69.282;2024-02-21T06:17:20;22.25;;;13.30;;
78346;SDS011;67803;41.330;69.282;2024-02-21T06:19:51;22.20;;;11.35;;
78346;SDS011;67803;41.330;69.282;2024-02-21T06:22:22;22.35;;;11.80;;
78346;SDS011;67803;41.330;69.282;2024-02-21T06:24:53;22.67;;;11.75;;
78346;SDS011;67803;41.330;69.282;2024-02-21T06:27:25;25.38;;;12.13;;
78346;SDS011;67803;41.330;69.282;2024-02-21T06:29:56;20.63;;;11.25;;
78346;SDS011;67803;41.330;69.282;2024-02-21T06:32:27;20.35;;;11.90;;
78346;SDS011;67803;41.330;69.282;2024-02-21T06:34:58;21.05;;;10.82;;
78346;SDS011;67803;41.330;69.282;2024-02-21T06:37:29;24.58;;;12.00;;
78346;SDS011;67803;41.330;69.282;2024-02-21T06:40:00;21.60;;;12.25;;
78346;SDS011;67803;41.330;69.282;2024-02-21T06:42:31;22.20;;;13.18;;
78346;SDS011;67803;41.330;69.282;2024-02-21T06:45:02;23.80;;;11.68;;
78346;SDS011;67803;41.330;69.282;2024-02-21T06:47:33;28.15;;;14.25;;
78346;SDS011;67803;41.330;69.282;2024-02-21T06:50:04;26.88;;;13.25;;
78346;SDS011;67803;41.330;69.282;2024-02-21T06:52:36;30.02;;;13.35;;
78346;SDS011;67803;41.330;69.282;2024-02-21T06:55:07;23.00;;;13.63;;
78346;SDS011;67803;41.330;69.282;2024-02-21T06:57:38;21.92;;;12.00;;
78346;SDS011;67803;41.330;69.282;2024-02-21T07:00:09;22.33;;;11.70;;
78346;SDS011;67803;41.330;69.282;2024-02-21T07:02:40;26.10;;;13.40;;
78346;SDS011;67803;41.330;69.282;2024-02-21T07:05:11;22.13;;;11.38;;
78346;SDS011;67803;41.330;69.282;2024-02-21T07:07:42;20.67;;;12.15;;
78346;SDS011;67803;41.330;69.282;2024-02-21T07:10:13;23.25;;;11.40;;
78346;SDS011;67803;41.330;69.282;2024-02-21T07:12:44;23.48;;;11.88;;
78346;SDS011;67803;41.330;69.282;2024-02-21T07:15:15;23.70;;;14.25;;
78346;SDS011;67803;41.330;69.282;2024-02-21T07:17:46;21.60;;;11.90;;
78346;SDS011;67803;41.330;69.282;2024-02-21T07:20:17;26.38;;;13.18;;
78346;SDS011;67803;41.330;69.282;2024-02-21T07:22:48;20.20;;;10.80;;
78346;SDS011;67803;41.330;69.282;2024-02-21T07:25:19;22.02;;;11.43;;
78346;SDS011;67803;41.330;69.282;2024-02-21T07:27:50;28.60;;;13.27;;
78346;SDS011;67803;41.330;69.282;2024-02-21T07:30:21;25.73;;;13.35;;
78346;SDS011;67803;41.330;69.282;2024-02-21T07:32:52;24.02;;;11.98;;
78346;SDS011;67803;41.330;69.282;2024-02-21T07:35:23;25.50;;;12.93;;
78346;SDS011;67803;41.330;69.282;2024-02-21T07:37:54;22.63;;;12.70;;
78346;SDS011;67803;41.330;69.282;2024-02-21T07:40:25;20.48;;;10.75;;
78346;SDS011;67803;41.330;69.282;2024-02-21T07:42:56;21.20;;;12.13;;
78346;SDS011;67803;41.330;69.282;2024-02-21T07:45:27;21.92;;;12.02;;
78346;SDS011;67803;41.330;69.282;2024-02-21T07:47:58;23.70;;;12.80;;
78346;SDS011;67803;41.330;69.282;2024-02-21T07:50:30;23.88;;;13.93;;
78346;SDS011;67803;41.330;69.282;2024-02-21T07:53:01;26.85;;;14.30;;
78346;SDS011;67803;41.330;69.282;2024-02-21T07:55:32;22.27;;;12.27;;
78346;SDS011;67803;41.330;69.282;2024-02-21T07:58:03;21.33;;;11.98;;
78346;SDS011;67803;41.330;69.282;2024-02-21T08:00:34;22.52;;;11.93;;
78346;SDS011;67803;41.330;69.282;2024-02-21T08:03:05;20.67;;;11.75;;
78346;SDS011;67803;41.330;69.282;2024-02-21T08:05:35;25.65;;;13.10;;
78346;SDS011;67803;41.330;69.282;2024-02-21T08:08:21;21.38;;;12.32;;
78346;SDS011;67803;41.330;69.282;2024-02-21T08:10:53;27.65;;;12.52;;
78346;SDS011;67803;41.330;69.282;2024-02-21T08:13:24;23.73;;;12.07;;
78346;SDS011;67803;41.330;69.282;2024-02-21T08:15:55;25.73;;;13.65;;
78346;SDS011;67803;41.330;69.282;2024-02-21T08:18:26;21.73;;;12.23;;
78346;SDS011;67803;41.330;69.282;2024-02-21T08:20:57;23.17;;;12.15;;
78346;SDS011;67803;41.330;69.282;2024-02-21T08:23:28;25.52;;;13.07;;
78346;SDS011;67803;41.330;69.282;2024-02-21T08:25:59;21.83;;;11.30;;
78346;SDS011;67803;41.330;69.282;2024-02-21T08:28:30;23.02;;;12.55;;
78346;SDS011;67803;41.330;69.282;2024-02-21T08:31:02;24.38;;;11.45;;
78346;SDS011;67803;41.330;69.282;2024-02-21T08:33:33;22.60;;;11.90;;
78346;SDS011;67803;41.330;69.282;2024-02-21T08:36:04;23.10;;;12.35;;
78346;SDS011;67803;41.330;69.282;2024-02-21T08:38:35;24.67;;;12.55;;
78346;SDS011;67803;41.330;69.282;2024-02-21T08:41:06;27.75;;;14.05;;
78346;SDS011;67803;41.330;69.282;2024-02-21T08:43:37;25.70;;;12.63;;
78346;SDS011;67803;41.330;69.282;2024-02-21T08:46:08;28.63;;;13.23;;
78346;SDS011;67803;41.330;69.282;2024-02-21T08:48:39;34.80;;;13.57;;
78346;SDS011;67803;41.330;69.282;2024-02-21T08:51:11;26.70;;;14.02;;
78346;SDS011;67803;41.330;69.282;2024-02-21T08:53:43;23.20;;;12.68;;
78346;SDS011;67803;41.330;69.282;2024-02-21T08:56:14;22.70;;;12.88;;
78346;SDS011;67803;41.330;69.282;2024-02-21T08:58:45;26.27;;;14.07;;
78346;SDS011;67803;41.330;69.282;2024-02-21T09:01:17;24.00;;;13.65;;
78346;SDS011;67803;41.330;69.282;2024-02-21T09:03:48;29.17;;;13.45;;
78346;SDS011;67803;41.330;69.282;2024-02-21T09:06:23;25.52;;;12.32;;
78346;SDS011;67803;41.330;69.282;2024-02-21T09:08:56;44.80;;;13.68;;
78346;SDS011;67803;41.330;69.282;2024-02-21T09:11:28;23.73;;;12.45;;
78346;SDS011;67803;41.330;69.282;2024-02-21T09:13:59;19.92;;;10.63;;
78346;SDS011;67803;41.330;69.282;2024-02-21T09:16:31;20.73;;;12.25;;
78346;SDS011;67803;41.330;69.282;2024-02-21T09:19:02;19.38;;;12.23;;
78346;SDS011;67803;41.330;69.282;2024-02-21T09:21:33;21.30;;;12.32;;
78346;SDS011;67803;41.330;69.282;2024-02-21T09:24:05;23.38;;;11.85;;
78346;SDS011;67803;41.330;69.282;2024-02-21T09:26:36;23.48;;;11.70;;
78346;SDS011;67803;41.330;69.282;2024-02-21T09:29:07;23.67;;;12.57;;
78346;SDS011;67803;41.330;69.282;2024-02-21T09:31:38;21.98;;;11.40;;
78346;SDS011;67803;41.330;69.282;2024-02-21T09:34:09;22.45;;;10.43;;
78346;SDS011;67803;41.330;69.282;2024-02-21T09:36:41;18.60;;;10.75;;
78346;SDS011;67803;41.330;69.282;2024-02-21T09:39:12;19.05;;;10.27;;
78346;SDS011;67803;41.330;69.282;2024-02-21T09:41:45;20.67;;;10.38;;
78346;SDS011;67803;41.330;69.282;2024-02-21T09:44:18;17.10;;;10.73;;
78346;SDS011;67803;41.330;69.282;2024-02-21T09:46:52;21.00;;;10.50;;
78346;SDS011;67803;41.330;69.282;2024-02-21T09:49:31;20.52;;;10.10;;
78346;SDS011;67803;41.330;69.282;2024-02-21T09:52:04;26.38;;;10.38;;
78346;SDS011;67803;41.330;69.282;2024-02-21T09:54:35;19.88;;;11.05;;
78346;SDS011;67803;41.330;69.282;2024-02-21T09:57:07;20.70;;;10.55;;
78346;SDS011;67803;41.330;69.282;2024-02-21T09:59:38;22.33;;;11.80;;
78346;SDS011;67803;41.330;69.282;2024-02-21T10:02:12;22.05;;;11.25;;
78346;SDS011;67803;41.330;69.282;2024-02-21T10:04:43;17.52;;;9.65;;
78346;SDS011;67803;41.330;69.282;2024-02-21T10:07:15;19.70;;;10.90;;
78346;SDS011;67803;41.330;69.282;2024-02-21T10:09:46;20.55;;;11.82;;
78346;SDS011;67803;41.330;69.282;2024-02-21T10:12:18;21.75;;;10.48;;
78346;SDS011;67803;41.330;69.282;2024-02-21T10:14:59;21.90;;;10.10;;
78346;SDS011;67803;41.330;69.282;2024-02-21T10:17:30;22.95;;;11.43;;
78346;SDS011;67803;41.330;69.282;2024-02-21T10:20:08;18.90;;;10.23;;
78346;SDS011;67803;41.330;69.282;2024-02-21T10:22:40;25.85;;;12.40;;
78346;SDS011;67803;41.330;69.282;2024-02-21T10:25:13;19.08;;;10.30;;
78346;SDS011;67803;41.330;69.282;2024-02-21T10:27:44;18.17;;;9.88;;
78346;SDS011;67803;41.330;69.282;2024-02-21T10:30:15;21.23;;;10.93;;
78346;SDS011;67803;41.330;69.282;2024-02-21T10:32:54;19.77;;;10.95;;
78346;SDS011;67803;41.330;69.282;2024-02-21T10:35:26;18.67;;;9.98;;
78346;SDS011;67803;41.330;69.282;2024-02-21T10:37:59;15.98;;;10.25;;
78346;SDS011;67803;41.330;69.282;2024-02-21T10:40:30;19.88;;;10.98;;
78346;SDS011;67803;41.330;69.282;2024-02-21T10:43:04;22.80;;;10.95;;
78346;SDS011;67803;41.330;69.282;2024-02-21T10:45:37;23.92;;;11.32;;
78346;SDS011;67803;41.330;69.282;2024-02-21T10:48:12;19.33;;;10.50;;
78346;SDS011;67803;41.330;69.282;2024-02-21T10:56:10;19.15;;;10.80;;
78346;SDS011;67803;41.330;69.282;2024-02-21T10:58:42;19.50;;;10.77;;
78346;SDS011;67803;41.330;69.282;2024-02-21T11:01:14;18.38;;;10.07;;
78346;SDS011;67803;41.330;69.282;2024-02-21T11:03:46;22.15;;;11.93;;
78346;SDS011;67803;41.330;69.282;2024-02-21T11:06:17;19.65;;;10.63;;
78346;SDS011;67803;41.330;69.282;2024-02-21T11:09:01;20.55;;;10.70;;
78346;SDS011;67803;41.330;69.282;2024-02-21T11:11:37;22.65;;;11.15;;
78346;SDS011;67803;41.330;69.282;2024-02-21T11:14:09;22.23;;;11.45;;
78346;SDS011;67803;41.330;69.282;2024-02-21T11:16:40;20.35;;;10.38;;
78346;SDS011;67803;41.330;69.282;2024-02-21T11:19:22;20.13;;;12.52;;
78346;SDS011;67803;41.330;69.282;2024-02-21T11:21:54;21.42;;;10.70;;
78346;SDS011;67803;41.330;69.282;2024-02-21T11:24:26;20.50;;;10.48;;
78346;SDS011;67803;41.330;69.282;2024-02-21T11:27:15;19.20;;;11.43;;
78346;SDS011;67803;41.330;69.282;2024-02-21T11:29:58;23.52;;;11.82;;
78346;SDS011;67803;41.330;69.282;2024-02-21T11:32:29;21.73;;;11.70;;
78346;SDS011;67803;41.330;69.282;2024-02-21T11:35:02;23.77;;;11.23;;
78346;SDS011;67803;41.330;69.282;2024-02-21T11:37:36;21.02;;;11.48;;
78346;SDS011;67803;41.330;69.282;2024-02-21T11:40:08;19.55;;;10.80;;
78346;SDS011;67803;41.330;69.282;2024-02-21T11:42:40;23.38;;;13.07;;
78346;SDS011;67803;41.330;69.282;2024-02-21T11:45:14;21.48;;;12.40;;
78346;SDS011;67803;41.330;69.282;2024-02-21T11:47:45;26.05;;;11.88;;
78346;SDS011;67803;41.330;69.282;2024-02-21T11:50:17;26.67;;;12.43;;
78346;SDS011;67803;41.330;69.282;2024-02-21T11:52:48;21.38;;;12.05;;
78346;SDS011;67803;41.330;69.282;2024-02-21T11:55:19;20.52;;;12.32;;
78346;SDS011;67803;41.330;69.282;2024-02-21T11:57:50;24.52;;;12.00;;
78346;SDS011;67803;41.330;69.282;2024-02-21T12:00:21;25.08;;;12.13;;
78346;SDS011;67803;41.330;69.282;2024-02-21T12:02:54;26.08;;;12.05;;
78346;SDS011;67803;41.330;69.282;2024-02-21T12:05:31;19.75;;;12.02;;
78346;SDS011;67803;41.330;69.282;2024-02-21T12:08:02;23.65;;;11.60;;
78346;SDS011;67803;41.330;69.282;2024-02-21T12:10:35;27.40;;;13.10;;
78346;SDS011;67803;41.330;69.282;2024-02-21T12:13:07;22.20;;;10.77;;
78346;SDS011;67803;41.330;69.282;2024-02-21T12:15:38;23.27;;;14.52;;
78346;SDS011;67803;41.330;69.282;2024-02-21T12:18:11;28.67;;;12.57;;
78346;SDS011;67803;41.330;69.282;2024-02-21T12:20:42;22.45;;;12.40;;
78346;SDS011;67803;41.330;69.282;2024-02-21T12:23:14;26.13;;;12.85;;
78346;SDS011;67803;41.330;69.282;2024-02-21T12:25:46;24.27;;;12.07;;
78346;SDS011;67803;41.330;69.282;2024-02-21T12:28:17;24.23;;;13.10;;
78346;SDS011;67803;41.330;69.282;2024-02-21T12:30:48;27.30;;;12.40;;
78346;SDS011;67803;41.330;69.282;2024-02-21T12:33:19;23.60;;;13.23;;
78346;SDS011;67803;41.330;69.282;2024-02-21T12:35:50;26.30;;;13.90;;
78346;SDS011;67803;41.330;69.282;2024-02-21T12:38:21;27.85;;;12.18;;
78346;SDS011;67803;41.330;69.282;2024-02-21T12:40:52;20.55;;;12.65;;
78346;SDS011;67803;41.330;69.282;2024-02-21T12:43:23;25.23;;;14.43;;
78346;SDS011;67803;41.330;69.282;2024-02-21T12:45:54;27.00;;;12.55;;
78346;SDS011;67803;41.330;69.282;2024-02-21T12:48:26;29.70;;;14.27;;
78346;SDS011;67803;41.330;69.282;2024-02-21T12:50:57;24.98;;;14.30;;
78346;SDS011;67803;41.330;69.282;2024-02-21T12:53:28;25.58;;;13.52;;
78346;SDS011;67803;41.330;69.282;2024-02-21T12:56:00;25.38;;;13.40;;
78346;SDS011;67803;41.330;69.282;2024-02-21T12:58:31;32.83;;;14.93;;
78346;SDS011;67803;41.330;69.282;2024-02-21T13:01:02;28.33;;;15.63;;
78346;SDS011;67803;41.330;69.282;2024-02-21T13:03:33;28.65;;;14.48;;
78346;SDS011;67803;41.330;69.282;2024-02-21T13:06:21;27.90;;;14.95;;
78346;SDS011;67803;41.330;69.282;2024-02-21T13:08:52;31.48;;;15.57;;
78346;SDS011;67803;41.330;69.282;2024-02-21T13:11:23;25.73;;;14.10;;
78346;SDS011;67803;41.330;69.282;2024-02-21T13:13:57;30.63;;;15.88;;
78346;SDS011;67803;41.330;69.282;2024-02-21T13:16:28;33.47;;;17.05;;
78346;SDS011;67803;41.330;69.282;2024-02-21T13:18:59;30.15;;;14.05;;
78346;SDS011;67803;41.330;69.282;2024-02-21T13:21:30;30.10;;;15.25;;
78346;SDS011;67803;41.330;69.282;2024-02-21T13:24:01;28.38;;;15.68;;
78346;SDS011;67803;41.330;69.282;2024-02-21T13:26:32;30.35;;;14.30;;
78346;SDS011;67803;41.330;69.282;2024-02-21T13:29:03;26.05;;;14.63;;
78346;SDS011;67803;41.330;69.282;2024-02-21T13:31:34;30.27;;;14.25;;
78346;SDS011;67803;41.330;69.282;2024-02-21T13:34:05;33.80;;;15.48;;
78346;SDS011;67803;41.330;69.282;2024-02-21T13:36:36;37.22;;;15.98;;
78346;SDS011;67803;41.330;69.282;2024-02-21T13:39:07;35.90;;;16.73;;
78346;SDS011;67803;41.330;69.282;2024-02-21T13:41:45;36.50;;;17.00;;
78346;SDS011;67803;41.330;69.282;2024-02-21T13:44:17;34.83;;;17.70;;
78346;SDS011;67803;41.330;69.282;2024-02-21T13:46:48;37.63;;;18.95;;
78346;SDS011;67803;41.330;69.282;2024-02-21T13:49:19;37.20;;;17.30;;
78346;SDS011;67803;41.330;69.282;2024-02-21T13:51:50;34.05;;;16.60;;
78346;SDS011;67803;41.330;69.282;2024-02-21T13:54:21;35.85;;;17.17;;
78346;SDS011;67803;41.330;69.282;2024-02-21T13:56:52;36.28;;;18.10;;
78346;SDS011;67803;41.330;69.282;2024-02-21T13:59:23;35.28;;;18.05;;
78346;SDS011;67803;41.330;69.282;2024-02-21T14:01:54;35.45;;;18.02;;
78346;SDS011;67803;41.330;69.282;2024-02-21T14:04:25;41.75;;;19.88;;
78346;SDS011;67803;41.330;69.282;2024-02-21T14:06:56;39.28;;;20.63;;
78346;SDS011;67803;41.330;69.282;2024-02-21T14:09:27;43.10;;;21.85;;
78346;SDS011;67803;41.330;69.282;2024-02-21T14:11:59;41.40;;;21.27;;
78346;SDS011;67803;41.330;69.282;2024-02-21T14:14:30;49.13;;;22.58;;
78346;SDS011;67803;41.330;69.282;2024-02-21T14:17:03;40.17;;;21.60;;
78346;SDS011;67803;41.330;69.282;2024-02-21T14:19:34;43.25;;;23.35;;
78346;SDS011;67803;41.330;69.282;2024-02-21T14:22:05;41.72;;;22.17;;
78346;SDS011;67803;41.330;69.282;2024-02-21T14:24:36;47.58;;;23.33;;
78346;SDS011;67803;41.330;69.282;2024-02-21T14:27:07;46.30;;;21.77;;
78346;SDS011;67803;41.330;69.282;2024-02-21T14:29:39;44.25;;;21.88;;
78346;SDS011;67803;41.330;69.282;2024-02-21T14:32:10;42.13;;;22.73;;
78346;SDS011;67803;41.330;69.282;2024-02-21T14:34:43;45.88;;;22.95;;
78346;SDS011;67803;41.330;69.282;2024-02-21T14:37:15;40.42;;;21.13;;